createdAt,value
2022-11-23T00:01:35.038Z,95810.31
2022-11-23T00:04:04.637Z,95806.06
2022-11-23T00:06:32.810Z,95817.16
2022-11-23T00:09:00.397Z,95823.03
2022-11-23T00:11:28.959Z,95815.53
2022-11-23T00:13:57.923Z,95823.03
2022-11-23T00:16:27.658Z,95818.13
2022-11-23T00:18:55.738Z,95813.88
2022-11-23T00:21:24.189Z,95816.66
2022-11-23T00:23:52.447Z,95819.91
2022-11-23T00:26:20.913Z,95822.19
2022-11-23T00:28:48.695Z,95819.75
2022-11-23T00:31:19.223Z,95817.47
2022-11-23T00:33:49.718Z,95822.06
2022-11-23T00:36:17.719Z,95825.13
2022-11-23T00:38:45.678Z,95818.78
2022-11-23T00:41:15.064Z,95812.72
2022-11-23T00:43:42.914Z,95814.88
2022-11-23T00:46:14.417Z,95810.44
2022-11-23T00:48:43.814Z,95802.78
2022-11-23T00:51:15.549Z,95807.34
2022-11-23T00:53:43.192Z,95824.47
2022-11-23T00:56:11.319Z,95821.72
2022-11-23T00:58:39.640Z,95823.69
2022-11-23T01:01:08.824Z,95822.72
2022-11-23T01:03:37.277Z,95824.16
2022-11-23T01:06:08.334Z,95824.00
2022-11-23T01:08:36.144Z,95821.72
2022-11-23T01:11:04.895Z,95817.81
2022-11-23T01:13:32.584Z,95823.34
2022-11-23T01:16:00.281Z,95819.44
2022-11-23T01:18:28.075Z,95819.44
2022-11-23T01:20:56.012Z,95817.81
2022-11-23T01:23:24.981Z,95815.03
2022-11-23T01:25:56.781Z,95808.81
2022-11-23T01:28:24.773Z,95811.59
2022-11-23T01:30:52.396Z,95812.25
2022-11-23T01:33:19.990Z,95811.09
2022-11-23T01:35:47.623Z,95821.22
2022-11-23T01:38:18.148Z,95815.66
2022-11-23T01:40:47.502Z,95817.94
2022-11-23T01:43:16.938Z,95821.06
2022-11-23T01:45:45.758Z,95825.31
2022-11-23T01:48:17.565Z,95823.69
2022-11-23T01:50:46.403Z,95824.81
2022-11-23T01:53:14.029Z,95830.72
2022-11-23T01:55:41.884Z,95834.28
2022-11-23T01:58:11.478Z,95833.47
2022-11-23T02:00:39.043Z,95840.97
2022-11-23T02:03:07.250Z,95839.81
2022-11-23T02:05:36.912Z,95836.56
2022-11-23T02:08:05.056Z,95839.19
2022-11-23T02:10:32.832Z,95841.97
2022-11-23T02:13:04.664Z,95847.00
2022-11-23T02:15:33.656Z,95847.50
2022-11-23T02:18:03.371Z,95849.16
2022-11-23T02:20:31.107Z,95856.97
2022-11-23T02:23:08.296Z,95861.38
2022-11-23T02:25:44.627Z,95861.88
2022-11-23T02:28:16.643Z,95864.97
2022-11-23T02:30:45.384Z,95857.78
2022-11-23T02:33:12.966Z,95853.88
2022-11-23T02:35:49.407Z,95840.16
2022-11-23T02:38:17.374Z,95853.41
2022-11-23T02:40:45.204Z,95850.44
2022-11-23T02:43:14.828Z,95852.75
2022-11-23T02:45:46.554Z,95862.69
2022-11-23T02:48:14.168Z,95857.63
2022-11-23T02:50:41.761Z,95862.53
2022-11-23T02:53:09.344Z,95853.88
2022-11-23T02:55:37.088Z,95854.19
2022-11-23T02:58:04.888Z,95854.53
2022-11-23T03:00:34.289Z,95856.97
2022-11-23T03:03:02.786Z,95863.16
2022-11-23T03:05:30.430Z,95865.47
2022-11-23T03:07:58.083Z,95857.44
2022-11-23T03:10:25.966Z,95854.84
2022-11-23T03:12:55.336Z,95852.41
2022-11-23T03:15:23.106Z,95855.81
2022-11-23T03:17:52.329Z,95862.19
2022-11-23T03:20:20.142Z,95862.69
2022-11-23T03:22:47.730Z,95852.09
2022-11-23T03:25:15.433Z,95848.00
2022-11-23T03:27:43.011Z,95848.00
2022-11-23T03:30:11.514Z,95844.06
2022-11-23T03:32:39.090Z,95855.03
2022-11-23T03:35:08.785Z,95849.81
2022-11-23T03:37:36.358Z,95849.16
2022-11-23T03:40:04.477Z,95853.88
2022-11-23T03:42:32.050Z,95862.53
2022-11-23T03:44:59.623Z,95865.94
2022-11-23T03:47:27.255Z,95865.63
2022-11-23T03:49:54.818Z,95869.72
2022-11-23T03:52:23.745Z,95870.84
2022-11-23T03:54:51.393Z,95867.56
2022-11-23T03:57:19.044Z,95860.91
2022-11-23T03:59:46.638Z,95848.16
2022-11-23T04:02:14.215Z,95847.19
2022-11-23T04:04:41.829Z,95853.72
2022-11-23T04:07:09.423Z,95846.03
2022-11-23T04:09:38.370Z,95848.50
2022-11-23T04:12:06.473Z,95850.63
2022-11-23T04:14:34.023Z,95854.22
2022-11-23T04:17:02.243Z,95862.53
2022-11-23T04:19:30.298Z,95849.94
2022-11-23T04:21:59.398Z,95854.03
2022-11-23T04:24:26.984Z,95854.38
2022-11-23T04:26:55.940Z,95848.97
2022-11-23T04:29:23.547Z,95841.13
2022-11-23T04:31:51.136Z,95848.97
2022-11-23T04:34:18.821Z,95848.97
2022-11-23T04:36:46.416Z,95848.16
2022-11-23T04:39:14.389Z,95842.63
2022-11-23T04:41:41.986Z,95839.69
2022-11-23T04:44:11.083Z,95839.03
2022-11-23T04:46:38.679Z,95841.63
2022-11-23T04:49:06.307Z,95840.00
2022-11-23T04:51:33.889Z,95840.00
2022-11-23T04:54:01.472Z,95841.31
2022-11-23T04:56:29.019Z,95831.34
2022-11-23T04:58:56.603Z,95839.50
2022-11-23T05:01:25.596Z,95851.63
2022-11-23T05:03:53.300Z,95849.47
2022-11-23T05:06:20.858Z,95859.13
2022-11-23T05:08:48.779Z,95854.88
2022-11-23T05:11:16.372Z,95856.00
2022-11-23T05:13:43.949Z,95843.94
2022-11-23T05:16:11.524Z,95841.47
2022-11-23T05:18:40.475Z,95837.06
2022-11-23T05:21:08.058Z,95832.00
2022-11-23T05:23:35.634Z,95831.00
2022-11-23T05:26:03.255Z,95841.31
2022-11-23T05:28:40.517Z,95843.59
2022-11-23T05:31:09.183Z,95842.94
2022-11-23T05:33:37.139Z,95839.34
2022-11-23T05:36:06.785Z,95844.56
2022-11-23T05:38:34.408Z,95841.97
2022-11-23T05:41:02.023Z,95851.75
2022-11-23T05:43:29.575Z,95837.03
2022-11-23T05:46:00.000Z,95830.19
2022-11-23T05:48:27.597Z,95838.69
2022-11-23T05:50:55.190Z,95836.25
2022-11-23T05:53:24.147Z,95838.38
2022-11-23T05:55:51.723Z,95852.88
2022-11-23T05:58:19.303Z,95853.38
2022-11-23T06:00:46.913Z,95848.50
2022-11-23T06:03:17.621Z,95855.50
2022-11-23T06:05:47.952Z,95851.25
2022-11-23T06:08:15.555Z,95857.44
2022-11-23T06:10:44.558Z,95860.53
2022-11-23T06:13:12.174Z,95854.66
2022-11-23T06:15:39.717Z,95859.88
2022-11-23T06:18:07.406Z,95855.34
2022-11-23T06:20:35.006Z,95854.19
2022-11-23T06:23:02.619Z,95848.81
2022-11-23T06:25:30.271Z,95846.69
2022-11-23T06:28:00.195Z,95845.22
2022-11-23T06:30:29.391Z,95846.88
2022-11-23T06:32:57.094Z,95840.81
2022-11-23T06:35:25.180Z,95849.44
2022-11-23T06:37:54.510Z,95853.19
2022-11-23T06:40:22.475Z,95854.84
2022-11-23T06:42:50.015Z,95861.53
2022-11-23T06:45:18.967Z,95860.72
2022-11-23T06:47:46.553Z,95867.25
2022-11-23T06:50:15.237Z,95872.16
2022-11-23T06:52:42.805Z,95877.53
2022-11-23T06:55:10.539Z,95880.31
2022-11-23T06:57:38.083Z,95883.44
2022-11-23T07:00:06.822Z,95885.88
2022-11-23T07:02:35.728Z,95881.97
2022-11-23T07:05:03.282Z,95887.34
2022-11-23T07:07:30.852Z,95885.25
2022-11-23T07:10:01.580Z,95893.22
2022-11-23T07:12:31.424Z,95897.34
2022-11-23T07:14:58.962Z,95891.78
2022-11-23T07:17:26.510Z,95883.09
2022-11-23T07:19:55.389Z,95886.03
2022-11-23T07:22:22.932Z,95884.44
2022-11-23T07:24:50.486Z,95878.72
2022-11-23T07:27:20.459Z,95890.47
2022-11-23T07:29:48.098Z,95887.53
2022-11-23T07:32:15.741Z,95894.38
2022-11-23T07:34:43.270Z,95900.75
2022-11-23T07:37:12.235Z,95905.16
2022-11-23T07:39:56.792Z,95907.13
2022-11-23T07:42:33.663Z,95909.59
2022-11-23T07:45:03.764Z,95911.88
2022-11-23T07:47:31.359Z,95906.47
2022-11-23T07:49:59.085Z,95917.44
2022-11-23T07:52:28.025Z,95911.56
2022-11-23T07:54:55.630Z,95905.34
2022-11-23T07:57:23.160Z,95907.13
2022-11-23T07:59:50.719Z,95910.38
2022-11-23T08:02:18.343Z,95917.09
2022-11-23T08:04:45.950Z,95898.47
2022-11-23T08:07:13.759Z,95909.75
2022-11-23T08:09:42.684Z,95903.72
2022-11-23T08:12:10.264Z,95910.22
2022-11-23T08:14:37.797Z,95906.16
2022-11-23T08:17:05.341Z,95911.38
2022-11-23T08:19:32.907Z,95911.53
2022-11-23T08:22:00.444Z,95916.13
2022-11-23T08:24:27.971Z,95921.19
2022-11-23T08:26:57.383Z,95907.44
2022-11-23T08:29:25.310Z,95918.88
2022-11-23T08:31:53.014Z,95925.56
2022-11-23T08:34:20.575Z,95927.22
2022-11-23T08:36:49.047Z,95923.81
2022-11-23T08:39:17.457Z,95930.16
2022-11-23T08:41:44.988Z,95925.91
2022-11-23T08:44:13.889Z,95935.88
2022-11-23T08:46:41.475Z,95924.56
2022-11-23T08:49:09.236Z,95927.38
2022-11-23T08:51:36.928Z,95928.34
2022-11-23T08:54:04.563Z,95927.19
2022-11-23T08:56:32.122Z,95934.19
2022-11-23T08:58:59.719Z,95932.91
2022-11-23T09:01:28.674Z,95934.38
2022-11-23T09:04:08.760Z,95935.19
2022-11-23T09:06:36.494Z,95939.94
2022-11-23T09:09:04.464Z,95941.41
2022-11-23T09:11:32.074Z,95938.09
2022-11-23T09:13:59.840Z,95942.69
2022-11-23T09:16:33.659Z,95937.28
2022-11-23T09:19:01.712Z,95940.06
2022-11-23T09:21:33.235Z,95934.97
2022-11-23T09:24:00.895Z,95944.13
2022-11-23T09:26:28.594Z,95952.16
2022-11-23T09:28:56.170Z,95942.16
2022-11-23T09:31:26.788Z,95938.72
2022-11-23T09:33:55.731Z,95948.06
2022-11-23T09:36:23.780Z,95942.63
2022-11-23T09:38:56.623Z,95940.31
2022-11-23T09:41:42.735Z,95942.06
2022-11-23T09:44:15.696Z,95938.31
2022-11-23T09:46:53.284Z,95926.53
2022-11-23T09:49:23.633Z,95927.94
2022-11-23T09:51:51.684Z,95926.50
2022-11-23T09:54:26.306Z,95926.66
2022-11-23T09:57:01.366Z,95919.44
2022-11-23T09:59:38.090Z,95925.34
2022-11-23T10:02:06.098Z,95918.59
2022-11-23T10:04:36.462Z,95919.75
2022-11-23T10:07:13.848Z,95927.31
2022-11-23T10:09:47.304Z,95921.56
2022-11-23T10:12:39.788Z,95920.22
2022-11-23T10:15:14.096Z,95917.81
2022-11-23T10:18:17.011Z,95921.19
2022-11-23T10:20:52.924Z,95915.47
2022-11-23T10:23:28.582Z,95915.25
2022-11-23T10:25:56.170Z,95914.00
2022-11-23T10:28:24.399Z,95915.97
2022-11-23T10:30:57.626Z,95910.09
2022-11-23T10:33:30.993Z,95908.84
2022-11-23T10:35:59.874Z,95895.91
2022-11-23T10:38:28.582Z,95902.06
2022-11-23T10:41:04.067Z,95902.56
2022-11-23T10:43:35.533Z,95904.91
2022-11-23T10:46:26.381Z,95899.84
2022-11-23T10:48:54.655Z,95895.25
2022-11-23T10:51:29.710Z,95889.66
2022-11-23T10:54:04.972Z,95892.22
2022-11-23T10:56:33.853Z,95885.69
2022-11-23T10:59:01.675Z,95887.41
2022-11-23T11:01:30.615Z,95882.66
2022-11-23T11:04:03.712Z,95879.56
2022-11-23T11:06:35.998Z,95874.16
2022-11-23T11:09:10.786Z,95870.75
2022-11-23T11:11:46.782Z,95868.28
2022-11-23T11:14:16.469Z,95875.94
2022-11-23T11:16:49.384Z,95870.13
2022-11-23T11:19:27.600Z,95868.66
2022-11-23T11:21:56.946Z,95870.19
2022-11-23T11:24:29.802Z,95865.56
2022-11-23T11:27:00.777Z,95860.50
2022-11-23T11:29:38.700Z,95855.78
2022-11-23T11:32:10.261Z,95855.03
2022-11-23T11:34:43.845Z,95850.47
2022-11-23T11:37:26.620Z,95855.88
2022-11-23T11:39:57.104Z,95848.81
2022-11-23T11:42:28.799Z,95854.16
2022-11-23T11:44:58.995Z,95853.91
2022-11-23T11:47:31.176Z,95853.09
2022-11-23T11:50:01.004Z,95844.41
2022-11-23T11:52:34.046Z,95844.31
2022-11-23T11:55:09.084Z,95839.06
2022-11-23T11:57:39.998Z,95828.09
2022-11-23T12:00:13.376Z,95834.44
2022-11-23T12:02:44.225Z,95831.47
2022-11-23T12:05:16.908Z,95828.19
2022-11-23T12:07:53.893Z,95834.34
2022-11-23T12:10:27.648Z,95830.19
2022-11-23T12:12:56.459Z,95833.19
2022-11-23T12:18:42.493Z,95830.81
2022-11-23T12:21:19.149Z,95828.03
2022-11-23T12:23:53.621Z,95824.31
2022-11-23T12:26:25.573Z,95830.00
2022-11-23T12:29:12.639Z,95826.78
2022-11-23T12:31:44.064Z,95830.47
2022-11-23T12:34:28.235Z,95841.94
2022-11-23T12:37:10.481Z,95829.41
2022-11-23T12:40:12.964Z,95826.22
2022-11-23T12:42:43.779Z,95823.22
2022-11-23T12:45:23.410Z,95823.59
2022-11-23T12:47:58.185Z,95825.84
2022-11-23T12:50:31.600Z,95820.47
2022-11-23T12:53:04.212Z,95818.06
2022-11-23T12:55:40.144Z,95817.22
2022-11-23T12:58:13.165Z,95809.28
2022-11-23T13:00:43.335Z,95818.97
2022-11-23T13:03:32.999Z,95815.41
2022-11-23T13:06:37.460Z,95816.91
2022-11-23T13:09:27.940Z,95821.41
2022-11-23T13:12:18.969Z,95805.91
2022-11-23T13:14:52.507Z,95810.81
2022-11-23T13:17:27.799Z,95808.91
2022-11-23T13:20:10.185Z,95809.09
2022-11-23T13:22:39.400Z,95814.06
2022-11-23T13:25:22.528Z,95816.69
2022-11-23T13:28:00.734Z,95820.16
2022-11-23T13:30:59.231Z,95816.28
2022-11-23T13:33:35.769Z,95814.19
2022-11-23T13:36:10.472Z,95814.97
2022-11-23T13:38:42.136Z,95816.53
2022-11-23T13:41:56.013Z,95814.25
2022-11-23T13:44:27.033Z,95812.72
2022-11-23T13:47:09.021Z,95815.94
2022-11-23T13:49:42.002Z,95820.09
2022-11-23T13:52:36.241Z,95819.38
2022-11-23T13:55:10.128Z,95816.53
2022-11-23T13:57:38.983Z,95820.22
2022-11-23T14:00:43.853Z,95814.06
2022-11-23T14:03:49.103Z,95813.94
2022-11-23T14:06:23.015Z,95816.31
2022-11-23T14:08:53.689Z,95818.00
2022-11-23T14:11:23.626Z,95821.22
2022-11-23T14:13:55.142Z,95826.50
2022-11-23T14:16:35.829Z,95827.19
2022-11-23T14:19:08.066Z,95824.63
2022-11-23T14:21:43.790Z,95823.78
2022-11-23T14:24:48.338Z,95831.63
2022-11-23T14:27:46.892Z,95838.09
2022-11-23T14:30:42.061Z,95838.34
2022-11-23T14:33:24.303Z,95832.81
2022-11-23T14:35:59.032Z,95831.38
2022-11-23T14:38:51.177Z,95836.03
2022-11-23T14:41:20.364Z,95839.06
2022-11-23T14:43:48.224Z,95842.84
2022-11-23T14:46:19.773Z,95839.00
2022-11-23T14:48:47.744Z,95847.03
2022-11-23T14:51:18.316Z,95839.69
2022-11-23T14:53:49.458Z,95840.38
2022-11-23T14:56:24.474Z,95837.09
2022-11-23T14:58:52.337Z,95843.00
2022-11-23T15:01:22.151Z,95836.34
2022-11-23T15:03:57.716Z,95836.03
2022-11-23T15:06:28.435Z,95840.28
2022-11-23T15:09:05.147Z,95837.69
2022-11-23T15:11:38.263Z,95828.72
2022-11-23T15:14:18.572Z,95842.13
2022-11-23T15:16:46.144Z,95841.13
2022-11-23T15:19:21.079Z,95837.38
2022-11-23T15:21:49.415Z,95847.84
2022-11-23T15:24:26.324Z,95844.09
2022-11-23T15:26:54.503Z,95847.88
2022-11-23T15:29:34.370Z,95857.16
2022-11-23T15:34:50.732Z,95851.25
2022-11-23T15:37:19.302Z,95853.38
2022-11-23T15:39:48.778Z,95864.13
2022-11-23T15:42:20.964Z,95862.81
2022-11-23T15:44:51.533Z,95871.47
2022-11-23T15:47:27.286Z,95873.59
2022-11-23T15:49:59.714Z,95878.31
2022-11-23T15:52:29.549Z,95870.63
2022-11-23T15:55:07.514Z,95869.00
2022-11-23T15:57:37.146Z,95866.88
2022-11-23T16:00:06.732Z,95876.00
2022-11-23T16:02:34.934Z,95871.94
2022-11-23T16:05:12.449Z,95872.25
2022-11-23T16:07:51.708Z,95877.16
2022-11-23T16:10:22.123Z,95881.41
2022-11-23T16:12:51.133Z,95878.13
2022-11-23T16:15:37.607Z,95881.28
2022-11-23T16:18:08.133Z,95879.97
2022-11-23T16:20:35.767Z,95879.03
2022-11-23T16:23:05.208Z,95879.03
2022-11-23T16:25:35.269Z,95873.81
2022-11-23T16:28:04.585Z,95877.72
2022-11-23T16:30:37.560Z,95883.13
2022-11-23T16:33:05.212Z,95876.44
2022-11-23T16:35:32.999Z,95880.16
2022-11-23T16:38:00.563Z,95877.69
2022-11-23T16:40:28.105Z,95872.97
2022-11-23T16:42:57.126Z,95883.75
2022-11-23T16:45:24.749Z,95873.13
2022-11-23T16:47:54.067Z,95873.13
2022-11-23T16:50:22.100Z,95873.44
2022-11-23T16:52:49.682Z,95863.78
2022-11-23T16:55:17.678Z,95868.03
2022-11-23T16:57:45.533Z,95859.72
2022-11-23T17:00:16.900Z,95865.59
2022-11-23T17:02:44.538Z,95861.50
2022-11-23T17:05:17.712Z,95859.38
2022-11-23T17:07:45.636Z,95857.28
2022-11-23T17:10:14.202Z,95859.72
2022-11-23T17:12:47.333Z,95855.47
2022-11-23T17:15:16.608Z,95855.31
2022-11-23T17:17:44.130Z,95857.75
2022-11-23T17:20:13.545Z,95858.09
2022-11-23T17:22:41.193Z,95865.94
2022-11-23T17:25:14.422Z,95862.66
2022-11-23T17:27:43.647Z,95865.78
2022-11-23T17:30:14.591Z,95864.94
2022-11-23T17:32:43.903Z,95868.06
2022-11-23T17:35:11.533Z,95864.16
2022-11-23T17:37:39.100Z,95871.34
2022-11-23T17:40:10.737Z,95851.25
2022-11-23T17:42:38.268Z,95871.34
2022-11-23T17:45:06.491Z,95860.25
2022-11-23T17:47:34.251Z,95873.13
2022-11-23T17:50:03.771Z,95878.88
2022-11-23T17:52:31.302Z,95880.84
2022-11-23T17:54:58.858Z,95882.13
2022-11-23T17:57:27.851Z,95877.22
2022-11-23T17:59:59.270Z,95884.56
2022-11-23T18:02:29.452Z,95890.97
2022-11-23T18:04:58.351Z,95888.16
2022-11-23T18:07:27.294Z,95888.50
2022-11-23T18:09:55.203Z,95878.88
2022-11-23T18:12:22.801Z,95884.91
2022-11-23T18:14:50.364Z,95889.31
2022-11-23T18:17:18.840Z,95900.13
2022-11-23T18:19:46.544Z,95902.09
2022-11-23T18:22:14.076Z,95904.34
2022-11-23T18:24:43.026Z,95909.75
2022-11-23T18:27:10.592Z,95915.00
2022-11-23T18:29:40.137Z,95915.13
2022-11-23T18:32:08.484Z,95917.44
2022-11-23T18:34:36.121Z,95914.16
2022-11-23T18:37:03.636Z,95922.00
2022-11-23T18:39:31.443Z,95941.28
2022-11-23T18:42:05.512Z,95944.38
2022-11-23T18:44:33.584Z,95940.44
2022-11-23T18:47:01.137Z,95944.69
2022-11-23T18:49:28.688Z,95946.31
2022-11-23T18:51:56.339Z,95944.38
2022-11-23T18:54:23.918Z,95942.09
2022-11-23T18:56:51.473Z,95945.34
2022-11-23T18:59:42.463Z,95942.41
2022-11-23T19:02:09.922Z,95947.81
2022-11-23T19:04:38.633Z,95946.31
2022-11-23T19:07:06.235Z,95946.19
2022-11-23T19:09:34.695Z,95945.53
2022-11-23T19:12:02.567Z,95947.81
2022-11-23T19:14:38.956Z,95944.22
2022-11-23T19:17:06.540Z,95940.63
2022-11-23T19:19:34.287Z,95944.38
2022-11-23T19:22:02.296Z,95953.03
2022-11-23T19:24:29.998Z,95955.00
2022-11-23T19:26:57.534Z,95961.03
2022-11-23T19:29:27.237Z,95963.81
2022-11-23T19:31:56.196Z,95977.06
2022-11-23T19:34:31.903Z,95970.88
2022-11-23T19:36:59.645Z,95968.22
2022-11-23T19:39:27.177Z,95971.50
2022-11-23T19:41:54.710Z,95975.91
2022-11-23T19:44:22.482Z,95969.19
2022-11-23T19:46:50.155Z,95978.53
2022-11-23T19:49:19.079Z,95966.91
2022-11-23T19:51:50.946Z,95971.66
2022-11-23T19:54:18.483Z,95980.50
2022-11-23T19:56:46.073Z,95979.84
2022-11-23T19:59:14.196Z,95991.59
2022-11-23T20:01:41.812Z,95995.53
2022-11-23T20:04:10.794Z,95992.09
2022-11-23T20:06:42.437Z,96003.53
2022-11-23T20:09:11.741Z,96001.22
2022-11-23T20:11:40.660Z,95996.00
2022-11-23T20:14:08.472Z,96007.47
2022-11-23T20:16:36.633Z,96004.34
2022-11-23T20:19:06.452Z,96003.03
2022-11-23T20:21:35.248Z,96019.88
2022-11-23T20:24:06.054Z,96023.63
2022-11-23T20:26:34.234Z,96036.69
2022-11-23T20:29:02.061Z,96037.34
2022-11-23T20:31:30.723Z,96043.09
2022-11-23T20:33:58.458Z,96037.22
2022-11-23T20:36:27.452Z,96045.53
2022-11-23T20:38:55.758Z,96052.06
2022-11-23T20:41:26.325Z,96062.69
2022-11-23T20:43:55.873Z,96055.03
2022-11-23T20:46:38.564Z,96064.34
2022-11-23T20:49:11.472Z,96062.22
2022-11-23T20:51:39.014Z,96060.59
2022-11-23T20:54:06.967Z,96062.22
2022-11-23T20:56:35.952Z,96053.41
2022-11-23T20:59:04.622Z,96069.56
2022-11-23T21:01:32.627Z,96066.50
2022-11-23T21:04:00.498Z,96074.34
2022-11-23T21:06:28.932Z,96073.03
2022-11-23T21:08:56.737Z,96075.31
2022-11-23T21:11:43.788Z,96081.19
2022-11-23T21:14:17.940Z,96086.56
2022-11-23T21:16:52.676Z,96092.63
2022-11-23T21:19:21.932Z,96098.19
2022-11-23T21:21:49.803Z,96099.66
2022-11-23T21:24:17.650Z,96107.50
2022-11-23T21:26:45.367Z,96102.94
2022-11-23T21:29:14.533Z,96101.28
2022-11-23T21:31:43.755Z,96105.53
2022-11-23T21:34:17.927Z,96103.59
2022-11-23T21:36:45.547Z,96115.19
2022-11-23T21:39:13.899Z,96113.25
2022-11-23T21:41:41.738Z,96118.47
2022-11-23T21:44:09.978Z,96116.00
2022-11-23T21:46:40.244Z,96118.47
2022-11-23T21:49:09.043Z,96119.28
2022-11-23T21:51:37.783Z,96110.94
2022-11-23T21:54:07.068Z,96107.84
2022-11-23T21:56:34.738Z,96116.00
2022-11-23T21:59:02.426Z,96110.78
2022-11-23T22:01:31.396Z,96111.44
2022-11-23T22:04:02.163Z,96119.28
2022-11-23T22:06:30.464Z,96119.28
2022-11-23T22:08:59.710Z,96116.50
2022-11-23T22:11:28.435Z,96117.34
2022-11-23T22:13:57.308Z,96114.22
2022-11-23T22:16:26.275Z,96124.22
2022-11-23T22:18:55.921Z,96127.63
2022-11-23T22:21:27.079Z,96124.03
2022-11-23T22:23:54.846Z,96119.78
2022-11-23T22:26:22.888Z,96122.91
2022-11-23T22:28:52.391Z,96131.41
2022-11-23T22:31:21.863Z,96132.72
2022-11-23T22:33:49.871Z,96138.75
2022-11-23T22:36:18.932Z,96126.31
2022-11-23T22:38:48.160Z,96134.19
2022-11-23T22:41:17.571Z,96136.78
2022-11-23T22:43:45.398Z,96133.19
2022-11-23T22:46:14.238Z,96139.25
2022-11-23T22:48:42.897Z,96139.91
2022-11-23T22:51:12.229Z,96146.13
2022-11-23T22:53:44.566Z,96148.41
2022-11-23T22:56:15.214Z,96144.63
2022-11-23T22:58:44.404Z,96153.97
2022-11-23T23:01:13.670Z,96153.97
2022-11-23T23:03:42.069Z,96158.34
2022-11-23T23:06:15.767Z,96160.84
2022-11-23T23:08:43.390Z,96159.19
2022-11-23T23:11:11.416Z,96156.72
2022-11-23T23:13:40.573Z,96154.75
2022-11-23T23:16:10.876Z,96155.41
2022-11-23T23:18:38.678Z,96158.81
2022-11-23T23:21:10.718Z,96166.19
2022-11-23T23:23:38.668Z,96166.19
2022-11-23T23:26:06.338Z,96161.94
2022-11-23T23:28:34.322Z,96160.44
2022-11-23T23:31:04.733Z,96161.41
2022-11-23T23:33:33.328Z,96166.84
2022-11-23T23:36:04.370Z,96171.41
2022-11-23T23:38:32.160Z,96168.28
2022-11-23T23:40:59.800Z,96162.56
2022-11-23T23:43:27.626Z,96164.34
2022-11-23T23:45:58.064Z,96169.06
2022-11-23T23:48:29.440Z,96175.28
2022-11-23T23:50:57.308Z,96170.22
2022-11-23T23:53:25.153Z,96174.47
2022-11-23T23:55:56.812Z,96178.72
2022-11-23T23:58:24.396Z,96181.16
